sensor_id;sensor_type;location;lat;lon;timestamp;temperature;humidity
12130;DHT22;6128;59.340;18.040;2022-11-27T00:01:37;2.80;99.90
12130;DHT22;6128;59.340;18.040;2022-11-27T00:04:04;2.80;99.90
12130;DHT22;6128;59.340;18.040;2022-11-27T00:06:34;2.70;99.90
12130;DHT22;6128;59.340;18.040;2022-11-27T00:09:05;2.70;99.90
12130;DHT22;6128;59.340;18.040;2022-11-27T00:11:38;2.80;99.90
12130;DHT22;6128;59.340;18.040;2022-11-27T00:14:10;2.80;99.90
12130;DHT22;6128;59.340;18.040;2022-11-27T00:16:37;2.80;99.90
12130;DHT22;6128;59.340;18.040;2022-11-27T00:19:05;2.70;99.90
12130;DHT22;6128;59.340;18.040;2022-11-27T00:21:36;2.80;99.90
12130;DHT22;6128;59.340;18.040;2022-11-27T00:24:06;2.70;99.90
12130;DHT22;6128;59.340;18.040;2022-11-27T00:26:40;2.70;99.90
12130;DHT22;6128;59.340;18.040;2022-11-27T00:29:12;2.70;99.90
12130;DHT22;6128;59.340;18.040;2022-11-27T00:31:40;2.70;99.90
12130;DHT22;6128;59.340;18.040;2022-11-27T00:34:20;2.70;99.90
12130;DHT22;6128;59.340;18.040;2022-11-27T00:36:52;2.60;99.90
12130;DHT22;6128;59.340;18.040;2022-11-27T00:39:23;2.60;99.90
12130;DHT22;6128;59.340;18.040;2022-11-27T00:42:00;2.50;99.90
12130;DHT22;6128;59.340;18.040;2022-11-27T00:44:31;2.50;99.90
12130;DHT22;6128;59.340;18.040;2022-11-27T00:46:59;2.50;99.90
12130;DHT22;6128;59.340;18.040;2022-11-27T00:49:29;2.50;99.90
12130;DHT22;6128;59.340;18.040;2022-11-27T00:51:58;2.40;99.90
12130;DHT22;6128;59.340;18.040;2022-11-27T00:54:25;2.50;99.90
12130;DHT22;6128;59.340;18.040;2022-11-27T00:56:54;2.50;99.90
12130;DHT22;6128;59.340;18.040;2022-11-27T00:59:21;2.50;99.90
12130;DHT22;6128;59.340;18.040;2022-11-27T01:01:48;2.50;99.90
12130;DHT22;6128;59.340;18.040;2022-11-27T01:04:15;2.50;99.90
12130;DHT22;6128;59.340;18.040;2022-11-27T01:06:43;2.60;99.90
12130;DHT22;6128;59.340;18.040;2022-11-27T01:09:11;2.60;99.90
12130;DHT22;6128;59.340;18.040;2022-11-27T01:11:39;2.70;99.90
12130;DHT22;6128;59.340;18.040;2022-11-27T01:14:11;2.70;99.90
12130;DHT22;6128;59.340;18.040;2022-11-27T01:16:43;2.70;99.90
12130;DHT22;6128;59.340;18.040;2022-11-27T01:19:11;2.80;99.90
12130;DHT22;6128;59.340;18.040;2022-11-27T01:21:39;2.70;99.90
12130;DHT22;6128;59.340;18.040;2022-11-27T01:24:07;2.70;99.90
12130;DHT22;6128;59.340;18.040;2022-11-27T01:26:34;2.70;99.90
12130;DHT22;6128;59.340;18.040;2022-11-27T01:29:01;2.70;99.90
12130;DHT22;6128;59.340;18.040;2022-11-27T01:31:31;2.70;99.90
12130;DHT22;6128;59.340;18.040;2022-11-27T01:34:01;2.60;99.90
12130;DHT22;6128;59.340;18.040;2022-11-27T01:36:28;2.60;99.90
12130;DHT22;6128;59.340;18.040;2022-11-27T01:38:59;2.70;99.90
12130;DHT22;6128;59.340;18.040;2022-11-27T01:41:28;2.70;99.90
12130;DHT22;6128;59.340;18.040;2022-11-27T01:43:57;2.80;99.90
12130;DHT22;6128;59.340;18.040;2022-11-27T01:46:34;2.70;99.90
12130;DHT22;6128;59.340;18.040;2022-11-27T01:49:23;2.70;99.90
12130;DHT22;6128;59.340;18.040;2022-11-27T01:51:53;2.70;99.90
12130;DHT22;6128;59.340;18.040;2022-11-27T01:54:25;2.70;99.90
12130;DHT22;6128;59.340;18.040;2022-11-27T01:56:55;2.70;99.90
12130;DHT22;6128;59.340;18.040;2022-11-27T01:59:25;2.70;99.90
12130;DHT22;6128;59.340;18.040;2022-11-27T02:01:53;2.70;99.90
12130;DHT22;6128;59.340;18.040;2022-11-27T02:04:21;2.60;99.90
12130;DHT22;6128;59.340;18.040;2022-11-27T02:06:48;2.60;99.90
12130;DHT22;6128;59.340;18.040;2022-11-27T02:09:15;2.50;99.90
12130;DHT22;6128;59.340;18.040;2022-11-27T02:11:51;2.50;99.90
12130;DHT22;6128;59.340;18.040;2022-11-27T02:14:26;2.60;99.90
12130;DHT22;6128;59.340;18.040;2022-11-27T02:17:01;2.60;99.90
12130;DHT22;6128;59.340;18.040;2022-11-27T02:19:41;2.70;99.90
12130;DHT22;6128;59.340;18.040;2022-11-27T02:22:16;2.70;99.90
12130;DHT22;6128;59.340;18.040;2022-11-27T02:24:51;2.70;99.90
12130;DHT22;6128;59.340;18.040;2022-11-27T02:27:43;2.80;99.90
12130;DHT22;6128;59.340;18.040;2022-11-27T02:30:14;2.80;99.90
12130;DHT22;6128;59.340;18.040;2022-11-27T02:32:47;2.80;99.90
12130;DHT22;6128;59.340;18.040;2022-11-27T02:35:18;2.80;99.90
12130;DHT22;6128;59.340;18.040;2022-11-27T02:37:52;2.80;99.90
12130;DHT22;6128;59.340;18.040;2022-11-27T02:40:23;2.80;99.90
12130;DHT22;6128;59.340;18.040;2022-11-27T02:42:56;2.80;99.90
12130;DHT22;6128;59.340;18.040;2022-11-27T02:45:30;2.90;99.90
12130;DHT22;6128;59.340;18.040;2022-11-27T02:47:58;2.90;99.90
12130;DHT22;6128;59.340;18.040;2022-11-27T02:50:27;2.90;99.90
12130;DHT22;6128;59.340;18.040;2022-11-27T02:52:59;2.90;99.90
12130;DHT22;6128;59.340;18.040;2022-11-27T02:55:31;2.90;99.90
12130;DHT22;6128;59.340;18.040;2022-11-27T02:58:04;2.90;99.90
12130;DHT22;6128;59.340;18.040;2022-11-27T03:00:34;2.90;99.90
12130;DHT22;6128;59.340;18.040;2022-11-27T03:03:05;2.90;99.90
12130;DHT22;6128;59.340;18.040;2022-11-27T03:05:36;2.80;99.90
12130;DHT22;6128;59.340;18.040;2022-11-27T03:08:06;2.80;99.90
12130;DHT22;6128;59.340;18.040;2022-11-27T03:10:39;2.80;99.90
12130;DHT22;6128;59.340;18.040;2022-11-27T03:13:08;2.80;99.90
12130;DHT22;6128;59.340;18.040;2022-11-27T03:15:45;2.80;99.90
12130;DHT22;6128;59.340;18.040;2022-11-27T03:18:25;2.80;99.90
12130;DHT22;6128;59.340;18.040;2022-11-27T03:20:59;2.80;99.90
12130;DHT22;6128;59.340;18.040;2022-11-27T03:23:28;2.70;99.90
12130;DHT22;6128;59.340;18.040;2022-11-27T03:25:55;2.80;99.90
12130;DHT22;6128;59.340;18.040;2022-11-27T03:28:23;2.80;99.90
12130;DHT22;6128;59.340;18.040;2022-11-27T03:30:52;2.80;99.90
12130;DHT22;6128;59.340;18.040;2022-11-27T03:33:19;2.70;99.90
12130;DHT22;6128;59.340;18.040;2022-11-27T03:35:46;2.70;99.90
12130;DHT22;6128;59.340;18.040;2022-11-27T03:38:13;2.80;99.90
12130;DHT22;6128;59.340;18.040;2022-11-27T03:40:44;2.80;99.90
12130;DHT22;6128;59.340;18.040;2022-11-27T03:43:19;2.80;99.90
12130;DHT22;6128;59.340;18.040;2022-11-27T03:45:54;2.80;99.90
12130;DHT22;6128;59.340;18.040;2022-11-27T03:48:30;2.80;99.90
12130;DHT22;6128;59.340;18.040;2022-11-27T03:51:05;2.80;99.90
12130;DHT22;6128;59.340;18.040;2022-11-27T03:53:41;2.80;99.90
12130;DHT22;6128;59.340;18.040;2022-11-27T03:56:15;2.80;99.90
12130;DHT22;6128;59.340;18.040;2022-11-27T03:58:46;2.80;99.90
12130;DHT22;6128;59.340;18.040;2022-11-27T04:01:17;2.80;99.90
12130;DHT22;6128;59.340;18.040;2022-11-27T04:03:45;2.80;99.90
12130;DHT22;6128;59.340;18.040;2022-11-27T04:06:12;2.80;99.90
12130;DHT22;6128;59.340;18.040;2022-11-27T04:08:39;2.80;99.90
12130;DHT22;6128;59.340;18.040;2022-11-27T04:11:06;2.80;99.90
12130;DHT22;6128;59.340;18.040;2022-11-27T04:13:34;2.80;99.90
12130;DHT22;6128;59.340;18.040;2022-11-27T04:16:01;2.80;99.90
12130;DHT22;6128;59.340;18.040;2022-11-27T04:18:30;2.80;99.90
12130;DHT22;6128;59.340;18.040;2022-11-27T04:20:57;2.80;99.90
12130;DHT22;6128;59.340;18.040;2022-11-27T04:23:26;2.80;99.90
12130;DHT22;6128;59.340;18.040;2022-11-27T04:25:53;2.80;99.90
12130;DHT22;6128;59.340;18.040;2022-11-27T04:28:20;2.80;99.90
12130;DHT22;6128;59.340;18.040;2022-11-27T04:30:50;2.80;99.90
12130;DHT22;6128;59.340;18.040;2022-11-27T04:33:18;2.80;99.90
12130;DHT22;6128;59.340;18.040;2022-11-27T04:35:46;2.80;99.90
12130;DHT22;6128;59.340;18.040;2022-11-27T04:38:14;2.80;99.90
12130;DHT22;6128;59.340;18.040;2022-11-27T04:40:41;2.80;99.90
12130;DHT22;6128;59.340;18.040;2022-11-27T04:43:08;2.80;99.90
12130;DHT22;6128;59.340;18.040;2022-11-27T04:45:35;2.80;99.90
12130;DHT22;6128;59.340;18.040;2022-11-27T04:48:03;2.80;99.90
12130;DHT22;6128;59.340;18.040;2022-11-27T04:50:30;2.80;99.90
12130;DHT22;6128;59.340;18.040;2022-11-27T04:52:59;2.80;99.90
12130;DHT22;6128;59.340;18.040;2022-11-27T04:55:26;2.80;99.90
12130;DHT22;6128;59.340;18.040;2022-11-27T04:57:53;2.70;99.90
12130;DHT22;6128;59.340;18.040;2022-11-27T05:00:20;2.70;99.90
12130;DHT22;6128;59.340;18.040;2022-11-27T05:02:47;2.70;99.90
12130;DHT22;6128;59.340;18.040;2022-11-27T05:05:15;2.70;99.90
12130;DHT22;6128;59.340;18.040;2022-11-27T05:07:43;2.70;99.90
12130;DHT22;6128;59.340;18.040;2022-11-27T05:10:11;2.70;99.90
12130;DHT22;6128;59.340;18.040;2022-11-27T05:12:39;2.70;99.90
12130;DHT22;6128;59.340;18.040;2022-11-27T05:15:08;2.60;99.90
12130;DHT22;6128;59.340;18.040;2022-11-27T05:17:35;2.50;99.90
12130;DHT22;6128;59.340;18.040;2022-11-27T05:20:02;2.50;99.90
12130;DHT22;6128;59.340;18.040;2022-11-27T05:22:30;2.40;99.90
12130;DHT22;6128;59.340;18.040;2022-11-27T05:24:57;2.40;99.90
12130;DHT22;6128;59.340;18.040;2022-11-27T05:27:25;2.50;99.90
12130;DHT22;6128;59.340;18.040;2022-11-27T05:29:52;2.50;99.90
12130;DHT22;6128;59.340;18.040;2022-11-27T05:32:19;2.50;99.90
12130;DHT22;6128;59.340;18.040;2022-11-27T05:34:46;2.60;99.90
12130;DHT22;6128;59.340;18.040;2022-11-27T05:37:14;2.50;99.90
12130;DHT22;6128;59.340;18.040;2022-11-27T05:39:41;2.60;99.90
12130;DHT22;6128;59.340;18.040;2022-11-27T05:42:08;2.60;99.90
12130;DHT22;6128;59.340;18.040;2022-11-27T05:44:37;2.60;99.90
12130;DHT22;6128;59.340;18.040;2022-11-27T05:47:04;2.60;99.90
12130;DHT22;6128;59.340;18.040;2022-11-27T05:49:31;2.60;99.90
12130;DHT22;6128;59.340;18.040;2022-11-27T05:51:58;2.60;99.90
12130;DHT22;6128;59.340;18.040;2022-11-27T05:54:26;2.60;99.90
12130;DHT22;6128;59.340;18.040;2022-11-27T05:56:53;2.60;99.90
12130;DHT22;6128;59.340;18.040;2022-11-27T05:59:20;2.60;99.90
12130;DHT22;6128;59.340;18.040;2022-11-27T06:01:49;2.60;99.90
12130;DHT22;6128;59.340;18.040;2022-11-27T06:04:16;2.60;99.90
12130;DHT22;6128;59.340;18.040;2022-11-27T06:06:43;2.60;99.90
12130;DHT22;6128;59.340;18.040;2022-11-27T06:09:10;2.60;99.90
12130;DHT22;6128;59.340;18.040;2022-11-27T06:11:38;2.60;99.90
12130;DHT22;6128;59.340;18.040;2022-11-27T06:14:06;2.60;99.90
12130;DHT22;6128;59.340;18.040;2022-11-27T06:16:34;2.60;99.90
12130;DHT22;6128;59.340;18.040;2022-11-27T06:19:02;2.50;99.90
12130;DHT22;6128;59.340;18.040;2022-11-27T06:21:30;2.50;99.90
12130;DHT22;6128;59.340;18.040;2022-11-27T06:23:57;2.40;99.90
12130;DHT22;6128;59.340;18.040;2022-11-27T06:26:26;2.40;99.90
12130;DHT22;6128;59.340;18.040;2022-11-27T06:28:54;2.40;99.90
12130;DHT22;6128;59.340;18.040;2022-11-27T06:31:24;2.40;99.90
12130;DHT22;6128;59.340;18.040;2022-11-27T06:33:53;2.40;99.90
12130;DHT22;6128;59.340;18.040;2022-11-27T06:36:25;2.30;99.90
12130;DHT22;6128;59.340;18.040;2022-11-27T06:38:52;2.30;99.90
12130;DHT22;6128;59.340;18.040;2022-11-27T06:41:22;2.40;99.90
12130;DHT22;6128;59.340;18.040;2022-11-27T06:43:51;2.40;99.90
12130;DHT22;6128;59.340;18.040;2022-11-27T06:46:20;2.40;99.90
12130;DHT22;6128;59.340;18.040;2022-11-27T06:48:49;2.40;99.90
12130;DHT22;6128;59.340;18.040;2022-11-27T06:51:19;2.30;99.90
12130;DHT22;6128;59.340;18.040;2022-11-27T06:53:48;2.40;99.90
12130;DHT22;6128;59.340;18.040;2022-11-27T06:56:17;2.40;99.90
12130;DHT22;6128;59.340;18.040;2022-11-27T06:58:44;2.40;99.90
12130;DHT22;6128;59.340;18.040;2022-11-27T07:01:13;2.40;99.90
12130;DHT22;6128;59.340;18.040;2022-11-27T07:03:40;2.40;99.90
12130;DHT22;6128;59.340;18.040;2022-11-27T07:06:10;2.40;99.90
12130;DHT22;6128;59.340;18.040;2022-11-27T07:08:37;2.40;99.90
12130;DHT22;6128;59.340;18.040;2022-11-27T07:11:09;2.40;99.90
12130;DHT22;6128;59.340;18.040;2022-11-27T07:13:36;2.30;99.90
12130;DHT22;6128;59.340;18.040;2022-11-27T07:16:05;2.30;99.90
12130;DHT22;6128;59.340;18.040;2022-11-27T07:18:35;2.30;99.90
12130;DHT22;6128;59.340;18.040;2022-11-27T07:21:02;2.30;99.90
12130;DHT22;6128;59.340;18.040;2022-11-27T07:23:30;2.40;99.90
12130;DHT22;6128;59.340;18.040;2022-11-27T07:25:57;2.40;99.90
12130;DHT22;6128;59.340;18.040;2022-11-27T07:28:25;2.40;99.90
12130;DHT22;6128;59.340;18.040;2022-11-27T07:30:56;2.50;99.90
12130;DHT22;6128;59.340;18.040;2022-11-27T07:33:23;2.40;99.90
12130;DHT22;6128;59.340;18.040;2022-11-27T07:35:57;2.40;99.90
12130;DHT22;6128;59.340;18.040;2022-11-27T07:38:24;2.30;99.90
12130;DHT22;6128;59.340;18.040;2022-11-27T07:40:52;2.30;99.90
12130;DHT22;6128;59.340;18.040;2022-11-27T07:43:19;2.30;99.90
12130;DHT22;6128;59.340;18.040;2022-11-27T07:45:47;2.30;99.90
12130;DHT22;6128;59.340;18.040;2022-11-27T07:48:15;2.30;99.90
12130;DHT22;6128;59.340;18.040;2022-11-27T07:50:42;2.30;99.90
12130;DHT22;6128;59.340;18.040;2022-11-27T07:53:09;2.30;99.90
12130;DHT22;6128;59.340;18.040;2022-11-27T07:55:37;2.30;99.90
12130;DHT22;6128;59.340;18.040;2022-11-27T07:58:04;2.30;99.90
12130;DHT22;6128;59.340;18.040;2022-11-27T08:00:31;2.40;99.90
12130;DHT22;6128;59.340;18.040;2022-11-27T08:03:00;2.40;99.90
12130;DHT22;6128;59.340;18.040;2022-11-27T08:05:28;2.40;99.90
12130;DHT22;6128;59.340;18.040;2022-11-27T08:07:58;2.30;99.90
12130;DHT22;6128;59.340;18.040;2022-11-27T08:10:25;2.30;99.90
12130;DHT22;6128;59.340;18.040;2022-11-27T08:12:53;2.40;99.90
12130;DHT22;6128;59.340;18.040;2022-11-27T08:15:20;2.50;99.90
12130;DHT22;6128;59.340;18.040;2022-11-27T08:17:47;2.50;99.90
12130;DHT22;6128;59.340;18.040;2022-11-27T08:20:16;2.40;99.90
12130;DHT22;6128;59.340;18.040;2022-11-27T08:22:44;2.40;99.90
12130;DHT22;6128;59.340;18.040;2022-11-27T08:25:11;2.40;99.90
12130;DHT22;6128;59.340;18.040;2022-11-27T08:27:38;2.40;99.90
12130;DHT22;6128;59.340;18.040;2022-11-27T08:30:06;2.40;99.90
12130;DHT22;6128;59.340;18.040;2022-11-27T08:32:36;2.40;99.90
12130;DHT22;6128;59.340;18.040;2022-11-27T08:35:04;2.40;99.90
12130;DHT22;6128;59.340;18.040;2022-11-27T08:37:33;2.40;99.90
12130;DHT22;6128;59.340;18.040;2022-11-27T08:40:00;2.50;99.90
12130;DHT22;6128;59.340;18.040;2022-11-27T08:42:27;2.50;99.90
12130;DHT22;6128;59.340;18.040;2022-11-27T08:44:54;2.70;99.90
12130;DHT22;6128;59.340;18.040;2022-11-27T08:47:21;2.80;99.90
12130;DHT22;6128;59.340;18.040;2022-11-27T08:49:49;2.80;99.90
12130;DHT22;6128;59.340;18.040;2022-11-27T08:52:16;2.90;99.90
12130;DHT22;6128;59.340;18.040;2022-11-27T08:54:46;2.80;99.90
12130;DHT22;6128;59.340;18.040;2022-11-27T08:57:15;2.80;99.90
12130;DHT22;6128;59.340;18.040;2022-11-27T08:59:42;2.80;99.90
12130;DHT22;6128;59.340;18.040;2022-11-27T09:02:10;2.80;99.90
12130;DHT22;6128;59.340;18.040;2022-11-27T09:04:38;2.80;99.90
12130;DHT22;6128;59.340;18.040;2022-11-27T09:07:05;2.80;99.90
12130;DHT22;6128;59.340;18.040;2022-11-27T09:09:32;2.90;99.90
12130;DHT22;6128;59.340;18.040;2022-11-27T09:12:01;2.90;99.90
12130;DHT22;6128;59.340;18.040;2022-11-27T09:14:29;2.90;99.90
12130;DHT22;6128;59.340;18.040;2022-11-27T09:16:56;3.00;99.90
12130;DHT22;6128;59.340;18.040;2022-11-27T09:19:23;3.00;99.90
12130;DHT22;6128;59.340;18.040;2022-11-27T09:21:50;2.90;99.90
12130;DHT22;6128;59.340;18.040;2022-11-27T09:24:17;2.80;99.90
12130;DHT22;6128;59.340;18.040;2022-11-27T09:26:44;2.80;99.90
12130;DHT22;6128;59.340;18.040;2022-11-27T09:29:13;2.90;99.90
12130;DHT22;6128;59.340;18.040;2022-11-27T09:31:40;2.90;99.90
12130;DHT22;6128;59.340;18.040;2022-11-27T09:34:07;2.90;99.90
12130;DHT22;6128;59.340;18.040;2022-11-27T09:36:35;2.90;99.90
12130;DHT22;6128;59.340;18.040;2022-11-27T09:39:02;2.90;99.90
12130;DHT22;6128;59.340;18.040;2022-11-27T09:41:44;3.00;99.90
12130;DHT22;6128;59.340;18.040;2022-11-27T09:44:32;3.10;99.90
12130;DHT22;6128;59.340;18.040;2022-11-27T09:47:10;3.20;99.90
12130;DHT22;6128;59.340;18.040;2022-11-27T09:49:42;3.30;99.90
12130;DHT22;6128;59.340;18.040;2022-11-27T09:52:16;3.30;99.90
12130;DHT22;6128;59.340;18.040;2022-11-27T09:54:51;3.40;99.90
12130;DHT22;6128;59.340;18.040;2022-11-27T09:57:26;3.40;99.90
12130;DHT22;6128;59.340;18.040;2022-11-27T09:59:57;3.50;99.90
12130;DHT22;6128;59.340;18.040;2022-11-27T10:02:27;3.50;99.90
12130;DHT22;6128;59.340;18.040;2022-11-27T10:04:57;3.50;99.90
12130;DHT22;6128;59.340;18.040;2022-11-27T10:07:34;3.60;99.90
12130;DHT22;6128;59.340;18.040;2022-11-27T10:10:19;3.60;99.90
12130;DHT22;6128;59.340;18.040;2022-11-27T10:12:52;3.70;99.90
12130;DHT22;6128;59.340;18.040;2022-11-27T10:15:34;3.70;99.90
12130;DHT22;6128;59.340;18.040;2022-11-27T10:18:08;3.70;99.90
12130;DHT22;6128;59.340;18.040;2022-11-27T10:20:41;3.70;99.90
12130;DHT22;6128;59.340;18.040;2022-11-27T10:23:19;3.70;99.90
12130;DHT22;6128;59.340;18.040;2022-11-27T10:25:52;3.70;99.90
12130;DHT22;6128;59.340;18.040;2022-11-27T10:28:26;3.70;99.90
12130;DHT22;6128;59.340;18.040;2022-11-27T10:31:01;3.70;99.90
12130;DHT22;6128;59.340;18.040;2022-11-27T10:33:35;3.70;99.90
12130;DHT22;6128;59.340;18.040;2022-11-27T10:36:07;3.70;99.90
12130;DHT22;6128;59.340;18.040;2022-11-27T10:38:38;3.70;99.90
12130;DHT22;6128;59.340;18.040;2022-11-27T10:41:09;3.70;99.90
12130;DHT22;6128;59.340;18.040;2022-11-27T10:43:38;3.70;99.90
12130;DHT22;6128;59.340;18.040;2022-11-27T10:46:11;3.70;99.90
12130;DHT22;6128;59.340;18.040;2022-11-27T10:48:39;3.70;99.90
12130;DHT22;6128;59.340;18.040;2022-11-27T10:51:14;3.60;99.90
12130;DHT22;6128;59.340;18.040;2022-11-27T10:53:42;3.60;99.90
12130;DHT22;6128;59.340;18.040;2022-11-27T10:56:39;3.50;99.90
12130;DHT22;6128;59.340;18.040;2022-11-27T10:59:10;3.40;99.90
12130;DHT22;6128;59.340;18.040;2022-11-27T11:01:44;3.30;99.90
12130;DHT22;6128;59.340;18.040;2022-11-27T11:04:13;3.40;99.90
12130;DHT22;6128;59.340;18.040;2022-11-27T11:06:42;3.50;99.90
12130;DHT22;6128;59.340;18.040;2022-11-27T11:09:14;3.60;99.90
12130;DHT22;6128;59.340;18.040;2022-11-27T11:11:42;3.60;99.90
12130;DHT22;6128;59.340;18.040;2022-11-27T11:14:17;3.70;99.90
12130;DHT22;6128;59.340;18.040;2022-11-27T11:16:46;3.80;99.90
12130;DHT22;6128;59.340;18.040;2022-11-27T11:19:24;3.80;99.90
12130;DHT22;6128;59.340;18.040;2022-11-27T11:21:51;3.80;99.90
12130;DHT22;6128;59.340;18.040;2022-11-27T11:24:23;3.80;99.90
12130;DHT22;6128;59.340;18.040;2022-11-27T11:26:53;3.90;99.90
12130;DHT22;6128;59.340;18.040;2022-11-27T11:29:31;3.90;99.90
12130;DHT22;6128;59.340;18.040;2022-11-27T11:32:07;3.90;99.90
12130;DHT22;6128;59.340;18.040;2022-11-27T11:34:40;3.90;99.90
12130;DHT22;6128;59.340;18.040;2022-11-27T11:37:19;3.90;99.90
12130;DHT22;6128;59.340;18.040;2022-11-27T11:39:54;3.90;99.90
12130;DHT22;6128;59.340;18.040;2022-11-27T11:42:24;4.00;99.90
12130;DHT22;6128;59.340;18.040;2022-11-27T11:44:53;4.00;99.90
12130;DHT22;6128;59.340;18.040;2022-11-27T11:47:22;3.90;99.90
12130;DHT22;6128;59.340;18.040;2022-11-27T11:49:52;3.90;99.90
12130;DHT22;6128;59.340;18.040;2022-11-27T11:52:36;3.90;99.90
12130;DHT22;6128;59.340;18.040;2022-11-27T11:55:12;3.80;99.90
12130;DHT22;6128;59.340;18.040;2022-11-27T12:00:47;3.80;99.90
12130;DHT22;6128;59.340;18.040;2022-11-27T12:03:37;3.80;99.90
12130;DHT22;6128;59.340;18.040;2022-11-27T12:06:16;3.70;99.90
12130;DHT22;6128;59.340;18.040;2022-11-27T12:09:06;3.80;99.90
12130;DHT22;6128;59.340;18.040;2022-11-27T12:11:41;3.60;99.90
12130;DHT22;6128;59.340;18.040;2022-11-27T12:14:17;3.50;99.90
12130;DHT22;6128;59.340;18.040;2022-11-27T12:16:55;3.40;99.90
12130;DHT22;6128;59.340;18.040;2022-11-27T12:22:31;3.40;99.90
12130;DHT22;6128;59.340;18.040;2022-11-27T12:25:15;3.40;99.90
12130;DHT22;6128;59.340;18.040;2022-11-27T12:27:55;3.40;99.90
12130;DHT22;6128;59.340;18.040;2022-11-27T12:30:27;3.40;99.90
12130;DHT22;6128;59.340;18.040;2022-11-27T12:33:23;3.40;99.90
12130;DHT22;6128;59.340;18.040;2022-11-27T12:35:58;3.40;99.90
12130;DHT22;6128;59.340;18.040;2022-11-27T12:38:40;3.40;99.90
12130;DHT22;6128;59.340;18.040;2022-11-27T12:41:41;3.50;99.90
12130;DHT22;6128;59.340;18.040;2022-11-27T12:44:17;3.40;99.90
12130;DHT22;6128;59.340;18.040;2022-11-27T12:46:53;3.40;99.90
12130;DHT22;6128;59.340;18.040;2022-11-27T12:49:28;3.50;99.90
12130;DHT22;6128;59.340;18.040;2022-11-27T12:52:05;3.40;99.90
12130;DHT22;6128;59.340;18.040;2022-11-27T12:54:41;3.20;99.90
12130;DHT22;6128;59.340;18.040;2022-11-27T12:57:14;3.20;99.90
12130;DHT22;6128;59.340;18.040;2022-11-27T12:59:47;3.10;99.90
12130;DHT22;6128;59.340;18.040;2022-11-27T13:02:27;3.10;99.90
12130;DHT22;6128;59.340;18.040;2022-11-27T13:04:59;3.10;99.90
12130;DHT22;6128;59.340;18.040;2022-11-27T13:07:33;3.10;99.90
12130;DHT22;6128;59.340;18.040;2022-11-27T13:10:10;3.00;99.90
12130;DHT22;6128;59.340;18.040;2022-11-27T13:12:41;3.00;99.90
12130;DHT22;6128;59.340;18.040;2022-11-27T13:15:17;3.00;99.90
12130;DHT22;6128;59.340;18.040;2022-11-27T13:17:49;3.00;99.90
12130;DHT22;6128;59.340;18.040;2022-11-27T13:20:27;3.00;99.90
12130;DHT22;6128;59.340;18.040;2022-11-27T13:22:57;2.90;99.90
12130;DHT22;6128;59.340;18.040;2022-11-27T13:25:24;2.90;99.90
12130;DHT22;6128;59.340;18.040;2022-11-27T13:27:53;3.00;99.90
12130;DHT22;6128;59.340;18.040;2022-11-27T13:30:22;3.10;99.90
12130;DHT22;6128;59.340;18.040;2022-11-27T13:32:52;3.10;99.90
12130;DHT22;6128;59.340;18.040;2022-11-27T13:35:24;3.20;99.90
12130;DHT22;6128;59.340;18.040;2022-11-27T13:37:59;3.20;99.90
12130;DHT22;6128;59.340;18.040;2022-11-27T13:40:31;3.20;99.90
12130;DHT22;6128;59.340;18.040;2022-11-27T13:43:04;3.20;99.90
12130;DHT22;6128;59.340;18.040;2022-11-27T13:45:35;3.20;99.90
12130;DHT22;6128;59.340;18.040;2022-11-27T13:48:21;3.10;99.90
12130;DHT22;6128;59.340;18.040;2022-11-27T13:50:51;2.90;99.90
12130;DHT22;6128;59.340;18.040;2022-11-27T13:53:29;2.90;99.90
12130;DHT22;6128;59.340;18.040;2022-11-27T13:55:57;2.80;99.90
12130;DHT22;6128;59.340;18.040;2022-11-27T13:58:29;2.80;99.90
12130;DHT22;6128;59.340;18.040;2022-11-27T14:00:57;2.80;99.90
12130;DHT22;6128;59.340;18.040;2022-11-27T14:03:26;2.80;99.90
12130;DHT22;6128;59.340;18.040;2022-11-27T14:05:54;2.80;99.90
12130;DHT22;6128;59.340;18.040;2022-11-27T14:08:25;2.80;99.90
12130;DHT22;6128;59.340;18.040;2022-11-27T14:10:55;2.80;99.90
12130;DHT22;6128;59.340;18.040;2022-11-27T14:13:34;2.80;99.90
12130;DHT22;6128;59.340;18.040;2022-11-27T14:16:15;2.90;99.90
12130;DHT22;6128;59.340;18.040;2022-11-27T14:18:49;2.90;99.90
12130;DHT22;6128;59.340;18.040;2022-11-27T14:21:23;3.00;99.90
12130;DHT22;6128;59.340;18.040;2022-11-27T14:23:53;2.90;99.90
12130;DHT22;6128;59.340;18.040;2022-11-27T14:26:21;2.90;99.90
12130;DHT22;6128;59.340;18.040;2022-11-27T14:28:51;2.90;99.90
12130;DHT22;6128;59.340;18.040;2022-11-27T14:31:27;2.90;99.90
12130;DHT22;6128;59.340;18.040;2022-11-27T14:33:54;2.90;99.90
12130;DHT22;6128;59.340;18.040;2022-11-27T14:36:23;2.90;99.90
12130;DHT22;6128;59.340;18.040;2022-11-27T14:38:52;2.90;99.90
12130;DHT22;6128;59.340;18.040;2022-11-27T14:41:20;2.90;99.90
12130;DHT22;6128;59.340;18.040;2022-11-27T14:43:57;2.90;99.90
12130;DHT22;6128;59.340;18.040;2022-11-27T14:46:24;2.90;99.90
12130;DHT22;6128;59.340;18.040;2022-11-27T14:48:53;2.90;99.90
12130;DHT22;6128;59.340;18.040;2022-11-27T14:51:22;2.90;99.90
12130;DHT22;6128;59.340;18.040;2022-11-27T14:53:55;2.90;99.90
12130;DHT22;6128;59.340;18.040;2022-11-27T14:56:32;3.00;99.90
12130;DHT22;6128;59.340;18.040;2022-11-27T14:59:00;3.00;99.90
12130;DHT22;6128;59.340;18.040;2022-11-27T15:01:30;3.00;99.90
12130;DHT22;6128;59.340;18.040;2022-11-27T15:03:58;3.00;99.90
12130;DHT22;6128;59.340;18.040;2022-11-27T15:06:28;3.00;99.90
12130;DHT22;6128;59.340;18.040;2022-11-27T15:08:58;3.00;99.90
12130;DHT22;6128;59.340;18.040;2022-11-27T15:11:25;3.00;99.90
12130;DHT22;6128;59.340;18.040;2022-11-27T15:13:56;3.00;99.90
12130;DHT22;6128;59.340;18.040;2022-11-27T15:16:26;3.00;99.90
12130;DHT22;6128;59.340;18.040;2022-11-27T15:18:59;3.00;99.90
12130;DHT22;6128;59.340;18.040;2022-11-27T15:21:27;3.10;99.90
12130;DHT22;6128;59.340;18.040;2022-11-27T15:23:56;3.10;99.90
12130;DHT22;6128;59.340;18.040;2022-11-27T15:26:37;3.10;99.90
12130;DHT22;6128;59.340;18.040;2022-11-27T15:29:26;3.10;99.90
12130;DHT22;6128;59.340;18.040;2022-11-27T15:31:56;3.10;99.90
12130;DHT22;6128;59.340;18.040;2022-11-27T15:34:23;3.10;99.90
12130;DHT22;6128;59.340;18.040;2022-11-27T15:36:56;3.10;99.90
12130;DHT22;6128;59.340;18.040;2022-11-27T15:39:26;3.20;99.90
12130;DHT22;6128;59.340;18.040;2022-11-27T15:42:00;3.20;99.90
12130;DHT22;6128;59.340;18.040;2022-11-27T15:44:30;3.10;99.90
12130;DHT22;6128;59.340;18.040;2022-11-27T15:46:59;3.10;99.90
12130;DHT22;6128;59.340;18.040;2022-11-27T15:49:28;3.10;99.90
12130;DHT22;6128;59.340;18.040;2022-11-27T15:51:56;3.20;99.90
12130;DHT22;6128;59.340;18.040;2022-11-27T15:54:23;3.20;99.90
12130;DHT22;6128;59.340;18.040;2022-11-27T15:56:51;3.20;99.90
12130;DHT22;6128;59.340;18.040;2022-11-27T15:59:19;3.30;99.90
12130;DHT22;6128;59.340;18.040;2022-11-27T16:01:46;3.30;99.90
12130;DHT22;6128;59.340;18.040;2022-11-27T16:04:13;3.40;99.90
12130;DHT22;6128;59.340;18.040;2022-11-27T16:06:40;3.40;99.90
12130;DHT22;6128;59.340;18.040;2022-11-27T16:09:07;3.40;99.90
12130;DHT22;6128;59.340;18.040;2022-11-27T16:11:35;3.40;99.90
12130;DHT22;6128;59.340;18.040;2022-11-27T16:14:05;3.40;99.90